Pagrindinis puslapis
METAR-TAF:

METAR-TAF

Oro uostai :

Fort Richardson, Aliaska, Jungtinės Amerikos Valstijos

platuma: 61-15-45N, ilguma: 149-39-17W, Aukštis: 115 m

Dabartinis oras

Ataskaita buvo paskelbta 35 minutes, ne 19:58 UTC
Ramus vėjas
Temperatūra -6°C
Drėgmė 100%
Slėgis 1016 hPa
Matomumas: 14.5 km
Giedras dangus

METAR: PAFR 281958Z AUTO 00000KT 9SM CLR M06/M06 A3000 RMK AO2 FZDZE02 SLP170 P0000 T10561061 $

Laikas: 12:33 (20:33 UTC)


TAF: trūkstamas

Orai ataskaitas ir orų prognozės (METAR, TAF).

turimą stotys yra geltonos ir raudonos taškus žemėlapyje.

Perkelti pele per norėdami pamatyti stoties vardą.

Tada spustelėkite, norėdami matyti oro stebėjimo ir prognozės.

Norėdami pakeisti žemėlapį: spustelėkite ant žalios mygtukų su juodo kryžiaus žemyn,; žalią mygtuką su brūkšneliu, jei norite nutolinti; arba žalių rodyklių gretimoms žemėlapius.


METAR-TAF: